createdAt,value
2022-10-05T00:00:24.658Z,96351.72
2022-10-05T00:01:30.306Z,96349.00
2022-10-05T00:02:32.324Z,96352.91
2022-10-05T00:03:37.047Z,96343.91
2022-10-05T00:04:39.063Z,96345.13
2022-10-05T00:05:42.385Z,96350.59
2022-10-05T00:06:47.683Z,96340.84
2022-10-05T00:07:51.953Z,96336.16
2022-10-05T00:08:53.827Z,96333.81
2022-10-05T00:09:58.659Z,96336.53
2022-10-05T00:11:00.752Z,96336.53
2022-10-05T00:12:14.274Z,96331.06
2022-10-05T00:13:19.473Z,96331.84
2022-10-05T00:14:28.946Z,96324.06
2022-10-05T00:15:31.075Z,96331.84
2022-10-05T00:16:35.839Z,96324.84
2022-10-05T00:17:37.680Z,96321.31
2022-10-05T00:18:41.293Z,96318.59
2022-10-05T00:19:44.073Z,96317.78
2022-10-05T00:20:47.827Z,96326.00
2022-10-05T00:21:49.827Z,96318.22
2022-10-05T00:22:58.260Z,96323.69
2022-10-05T00:24:01.493Z,96325.66
2022-10-05T00:25:13.988Z,96325.66
2022-10-05T00:26:20.343Z,96317.84
2022-10-05T00:27:26.985Z,96317.06
2022-10-05T00:28:30.451Z,96309.66
2022-10-05T00:29:35.608Z,96310.03
2022-10-05T00:30:37.623Z,96309.66
2022-10-05T00:31:40.560Z,96311.59
2022-10-05T00:32:43.181Z,96312.38
2022-10-05T00:33:46.356Z,96306.13
2022-10-05T00:34:48.225Z,96310.81
2022-10-05T00:35:51.426Z,96309.28
2022-10-05T00:36:53.264Z,96305.00
2022-10-05T00:37:57.227Z,96308.50
2022-10-05T00:39:00.769Z,96308.13
2022-10-05T00:40:04.321Z,96299.91
2022-10-05T00:41:12.078Z,96303.81
2022-10-05T00:42:30.515Z,96299.53
2022-10-05T00:44:04.624Z,96299.53
2022-10-05T00:45:14.199Z,96300.75
2022-10-05T00:46:22.614Z,96302.28
2022-10-05T00:47:35.844Z,96298.00
2022-10-05T00:48:46.139Z,96295.28
2022-10-05T00:50:01.414Z,96290.97
2022-10-05T00:51:15.869Z,96292.16
2022-10-05T00:52:27.612Z,96297.63
2022-10-05T00:53:39.337Z,96297.63
2022-10-05T00:54:47.432Z,96292.16
2022-10-05T00:55:59.172Z,96292.16
2022-10-05T00:57:15.158Z,96289.81
2022-10-05T00:58:28.502Z,96294.09
2022-10-05T00:59:46.758Z,96291.03
2022-10-05T01:00:58.752Z,96292.97
2022-10-05T01:02:08.933Z,96278.53
2022-10-05T01:03:19.186Z,96286.72
2022-10-05T01:04:27.851Z,96284.00
2022-10-05T01:05:44.557Z,96287.13
2022-10-05T01:06:59.933Z,96284.38
2022-10-05T01:08:08.740Z,96288.31
2022-10-05T01:09:22.903Z,96280.50
2022-10-05T01:10:33.643Z,96279.72
2022-10-05T01:11:44.123Z,96282.47
2022-10-05T01:12:51.952Z,96285.19
2022-10-05T01:14:05.485Z,96285.97
2022-10-05T01:15:12.939Z,96281.69
2022-10-05T01:16:25.914Z,96274.28
2022-10-05T01:17:38.758Z,96272.72
2022-10-05T01:18:51.370Z,96282.84
2022-10-05T01:20:11.185Z,96280.13
2022-10-05T01:21:20.175Z,96281.31
2022-10-05T01:22:33.446Z,96273.50
2022-10-05T01:24:13.050Z,96276.25
2022-10-05T01:25:23.877Z,96280.56
2022-10-05T01:27:08.239Z,96280.56
2022-10-05T01:28:15.645Z,96278.97
2022-10-05T01:29:23.321Z,96269.25
2022-10-05T01:30:25.164Z,96282.91
2022-10-05T01:31:36.557Z,96280.94
2022-10-05T01:32:45.010Z,96268.06
2022-10-05T01:34:04.229Z,96275.88
2022-10-05T01:35:21.385Z,96262.59
2022-10-05T01:36:31.196Z,96265.75
2022-10-05T01:37:42.404Z,96277.44
2022-10-05T01:38:55.983Z,96264.94
2022-10-05T01:40:07.286Z,96274.34
2022-10-05T01:41:28.523Z,96264.94
2022-10-05T01:42:42.951Z,96260.69
2022-10-05T01:43:50.354Z,96262.63
2022-10-05T01:45:00.057Z,96263.41
2022-10-05T01:46:10.679Z,96269.63
2022-10-05T01:47:20.628Z,96263.41
2022-10-05T01:48:30.334Z,96267.34
2022-10-05T01:49:37.740Z,96270.41
2022-10-05T01:50:50.066Z,96263.41
2022-10-05T01:52:04.209Z,96259.47
2022-10-05T01:53:15.659Z,96268.88
2022-10-05T01:54:28.235Z,96264.19
2022-10-05T01:55:38.035Z,96261.44
2022-10-05T01:56:46.833Z,96264.19
2022-10-05T01:58:01.620Z,96262.63
2022-10-05T01:59:16.373Z,96260.69
2022-10-05T02:00:20.699Z,96265.38
2022-10-05T02:01:31.367Z,96257.94
2022-10-05T02:02:38.546Z,96256.41
2022-10-05T02:03:58.430Z,96257.16
2022-10-05T02:05:11.252Z,96256.41
2022-10-05T02:06:17.487Z,96256.41
2022-10-05T02:07:25.282Z,96250.94
2022-10-05T02:08:34.851Z,96246.63
2022-10-05T02:09:42.364Z,96252.09
2022-10-05T02:10:50.840Z,96247.00
2022-10-05T02:12:00.323Z,96241.16
2022-10-05T02:13:12.591Z,96245.47
2022-10-05T02:14:21.699Z,96243.91
2022-10-05T02:15:30.338Z,96243.91
2022-10-05T02:16:36.428Z,96241.16
2022-10-05T02:17:44.544Z,96243.91
2022-10-05T02:18:51.503Z,96235.72
2022-10-05T02:20:00.978Z,96237.66
2022-10-05T02:21:04.852Z,96241.94
2022-10-05T02:22:12.402Z,96232.97
2022-10-05T02:23:19.407Z,96239.22
2022-10-05T02:24:25.796Z,96236.91
2022-10-05T02:25:32.348Z,96240.41
2022-10-05T02:26:37.325Z,96235.72
2022-10-05T02:27:46.285Z,96234.16
2022-10-05T02:28:54.832Z,96225.97
2022-10-05T02:30:02.925Z,96231.44
2022-10-05T02:31:13.535Z,96230.63
2022-10-05T02:32:21.244Z,96228.72
2022-10-05T02:33:28.658Z,96224.41
2022-10-05T02:34:37.810Z,96231.06
2022-10-05T02:35:53.402Z,96224.41
2022-10-05T02:37:07.241Z,96222.88
2022-10-05T02:38:15.446Z,96221.28
2022-10-05T02:39:24.056Z,96210.38
2022-10-05T02:40:39.026Z,96220.53
2022-10-05T02:41:52.230Z,96215.06
2022-10-05T02:43:01.153Z,96210.38
2022-10-05T02:44:14.829Z,96207.25
2022-10-05T02:45:26.286Z,96211.56
2022-10-05T02:46:36.681Z,96206.09
2022-10-05T02:47:45.839Z,96208.06
2022-10-05T02:48:58.919Z,96212.72
2022-10-05T02:50:08.981Z,96212.72
2022-10-05T02:51:21.046Z,96216.66
2022-10-05T02:52:29.542Z,96222.88
2022-10-05T02:53:39.261Z,96225.22
2022-10-05T02:54:55.279Z,96223.66
2022-10-05T02:56:11.228Z,96218.63
2022-10-05T02:57:22.024Z,96216.66
2022-10-05T02:58:27.790Z,96215.88
2022-10-05T02:59:40.012Z,96222.13
2022-10-05T03:00:48.389Z,96226.03
2022-10-05T03:01:55.855Z,96223.31
2022-10-05T03:03:03.611Z,96225.25
2022-10-05T03:04:18.393Z,96235.41
2022-10-05T03:05:25.450Z,96226.03
2022-10-05T03:06:36.228Z,96228.41
2022-10-05T03:07:47.024Z,96228.41
2022-10-05T03:08:55.515Z,96235.41
2022-10-05T03:10:01.812Z,96226.06
2022-10-05T03:11:16.026Z,96232.28
2022-10-05T03:12:32.721Z,96224.09
2022-10-05T03:13:43.885Z,96228.03
2022-10-05T03:14:54.766Z,96230.75
2022-10-05T03:16:10.459Z,96235.44
2022-10-05T03:17:19.071Z,96234.66
2022-10-05T03:18:39.062Z,96233.88
2022-10-05T03:19:56.805Z,96235.84
2022-10-05T03:21:11.857Z,96241.31
2022-10-05T03:22:23.738Z,96231.53
2022-10-05T03:23:37.464Z,96237.00
2022-10-05T03:24:51.745Z,96230.00
2022-10-05T03:26:17.940Z,96228.47
2022-10-05T03:27:31.782Z,96243.28
2022-10-05T03:28:45.231Z,96234.69
2022-10-05T03:29:57.362Z,96239.00
2022-10-05T03:31:05.901Z,96244.47
2022-10-05T03:32:20.501Z,96245.63
2022-10-05T03:33:31.703Z,96237.44
2022-10-05T03:34:37.823Z,96238.63
2022-10-05T03:35:50.068Z,96240.16
2022-10-05T03:37:01.956Z,96233.19
2022-10-05T03:38:11.883Z,96243.31
2022-10-05T03:39:21.250Z,96237.06
2022-10-05T03:40:30.918Z,96235.53
2022-10-05T03:41:42.340Z,96241.00
2022-10-05T03:42:56.101Z,96229.28
2022-10-05T03:44:22.222Z,96235.53
2022-10-05T03:45:30.503Z,96225.75
2022-10-05T03:46:46.657Z,96228.50
2022-10-05T03:48:00.420Z,96224.22
2022-10-05T03:49:15.158Z,96229.69
2022-10-05T03:50:33.997Z,96223.47
2022-10-05T03:51:40.634Z,96223.47
2022-10-05T03:52:48.645Z,96212.94
2022-10-05T03:53:56.790Z,96215.66
2022-10-05T03:55:04.700Z,96216.44
2022-10-05T03:56:14.448Z,96214.13
2022-10-05T03:57:20.915Z,96212.16
2022-10-05T03:58:28.810Z,96216.84
2022-10-05T03:59:39.553Z,96223.06
2022-10-05T04:00:46.248Z,96227.78
2022-10-05T04:01:55.207Z,96226.59
2022-10-05T04:03:02.931Z,96217.63
2022-10-05T04:04:12.302Z,96223.84
2022-10-05T04:05:18.105Z,96223.84
2022-10-05T04:06:25.904Z,96222.69
2022-10-05T04:07:37.059Z,96221.88
2022-10-05T04:08:48.056Z,96218.75
2022-10-05T04:09:53.207Z,96222.25
2022-10-05T04:10:59.453Z,96221.06
2022-10-05T04:12:09.879Z,96215.59
2022-10-05T04:13:18.753Z,96223.03
2022-10-05T04:14:26.687Z,96216.78
2022-10-05T04:15:35.683Z,96218.75
2022-10-05T04:16:44.109Z,96215.59
2022-10-05T04:17:52.883Z,96219.50
2022-10-05T04:19:01.390Z,96214.44
2022-10-05T04:20:08.491Z,96219.13
2022-10-05T04:21:13.878Z,96206.66
2022-10-05T04:22:21.143Z,96201.19
2022-10-05T04:23:35.971Z,96206.66
2022-10-05T04:24:43.087Z,96205.09
2022-10-05T04:25:48.889Z,96210.97
2022-10-05T04:26:56.871Z,96212.16
2022-10-05T04:28:10.343Z,96205.94
2022-10-05T04:29:18.762Z,96216.84
2022-10-05T04:30:22.294Z,96211.38
2022-10-05T04:31:50.125Z,96205.13
2022-10-05T04:32:57.120Z,96211.38
2022-10-05T04:34:14.744Z,96204.34
2022-10-05T04:35:50.120Z,96209.81
2022-10-05T04:36:59.455Z,96204.34
2022-10-05T04:38:17.751Z,96204.34
2022-10-05T04:39:29.926Z,96211.78
2022-10-05T04:40:49.305Z,96208.28
2022-10-05T04:42:05.545Z,96214.91
2022-10-05T04:43:13.176Z,96209.44
2022-10-05T04:44:35.693Z,96205.94
2022-10-05T04:45:57.213Z,96212.16
2022-10-05T04:47:14.316Z,96211.41
2022-10-05T04:48:36.316Z,96218.81
2022-10-05T04:49:55.166Z,96209.06
2022-10-05T04:51:14.661Z,96209.06
2022-10-05T04:52:25.575Z,96217.25
2022-10-05T04:53:34.479Z,96220.00
2022-10-05T04:54:54.105Z,96217.25
2022-10-05T04:56:03.075Z,96224.69
2022-10-05T04:57:10.608Z,96218.44
2022-10-05T04:58:32.209Z,96219.22
2022-10-05T04:59:53.340Z,96223.91
2022-10-05T05:01:13.141Z,96228.59
2022-10-05T05:02:26.857Z,96227.84
2022-10-05T05:03:49.811Z,96227.03
2022-10-05T05:05:17.978Z,96236.78
2022-10-05T05:06:32.134Z,96226.19
2022-10-05T05:07:45.812Z,96233.19
2022-10-05T05:09:18.547Z,96229.28
2022-10-05T05:10:41.574Z,96229.28
2022-10-05T05:12:01.400Z,96234.38
2022-10-05T05:13:17.923Z,96235.97
2022-10-05T05:14:47.709Z,96235.59
2022-10-05T05:15:59.718Z,96235.22
2022-10-05T05:17:14.553Z,96236.38
2022-10-05T05:18:54.154Z,96236.38
2022-10-05T05:20:15.201Z,96235.22
2022-10-05T05:21:34.095Z,96242.66
2022-10-05T05:22:44.875Z,96237.56
2022-10-05T05:23:52.661Z,96245.00
2022-10-05T05:25:18.002Z,96238.00
2022-10-05T05:26:27.216Z,96245.41
2022-10-05T05:27:41.435Z,96245.81
2022-10-05T05:28:53.815Z,96240.34
2022-10-05T05:30:03.699Z,96245.03
2022-10-05T05:31:16.780Z,96249.69
2022-10-05T05:32:33.287Z,96248.16
2022-10-05T05:33:47.148Z,96254.41
2022-10-05T05:35:04.684Z,96246.19
2022-10-05T05:36:28.127Z,96255.16
2022-10-05T05:37:43.282Z,96250.09
2022-10-05T05:38:54.334Z,96252.81
2022-10-05T05:40:07.612Z,96245.41
2022-10-05T05:41:12.732Z,96248.16
2022-10-05T05:42:32.652Z,96243.47
2022-10-05T05:43:44.573Z,96245.41
2022-10-05T05:44:51.940Z,96243.47
2022-10-05T05:46:00.333Z,96241.50
2022-10-05T05:47:10.067Z,96239.16
2022-10-05T05:48:19.440Z,96249.69
2022-10-05T05:49:28.703Z,96239.53
2022-10-05T05:50:41.318Z,96243.84
2022-10-05T05:51:49.280Z,96239.53
2022-10-05T05:52:55.955Z,96239.53
2022-10-05T05:54:07.037Z,96238.38
2022-10-05T05:55:16.242Z,96237.19
2022-10-05T05:56:25.058Z,96233.28
2022-10-05T05:57:32.522Z,96236.38
2022-10-05T05:58:43.968Z,96228.56
2022-10-05T06:00:06.165Z,96235.53
2022-10-05T06:01:34.053Z,96230.75
2022-10-05T06:02:46.062Z,96232.22
2022-10-05T06:03:53.396Z,96233.34
2022-10-05T06:05:01.298Z,96236.00
2022-10-05T06:06:11.801Z,96246.09
2022-10-05T06:07:18.841Z,96235.06
2022-10-05T06:08:30.252Z,96238.53
2022-10-05T06:09:43.351Z,96240.47
2022-10-05T06:11:12.655Z,96238.47
2022-10-05T06:12:18.580Z,96239.19
2022-10-05T06:13:29.154Z,96247.00
2022-10-05T06:14:35.211Z,96245.78
2022-10-05T06:15:45.132Z,96239.84
2022-10-05T06:16:53.624Z,96241.81
2022-10-05T06:18:02.896Z,96244.19
2022-10-05T06:19:10.397Z,96245.78
2022-10-05T06:20:21.747Z,96242.66
2022-10-05T06:21:30.251Z,96244.97
2022-10-05T06:22:38.205Z,96244.19
2022-10-05T06:23:48.198Z,96246.88
2022-10-05T06:25:03.805Z,96246.84
2022-10-05T06:26:20.372Z,96240.09
2022-10-05T06:27:27.752Z,96251.31
2022-10-05T06:28:31.642Z,96242.22
2022-10-05T06:29:45.551Z,96255.41
2022-10-05T06:31:00.758Z,96246.66
2022-10-05T06:32:10.763Z,96252.84
2022-10-05T06:33:24.933Z,96254.28
2022-10-05T06:34:56.923Z,96249.50
2022-10-05T06:36:13.965Z,96249.41
2022-10-05T06:37:28.225Z,96258.69
2022-10-05T06:38:47.669Z,96257.88
2022-10-05T06:40:12.166Z,96259.47
2022-10-05T06:41:24.904Z,96251.28
2022-10-05T06:43:01.633Z,96259.97
2022-10-05T06:44:27.774Z,96261.97
2022-10-05T06:46:01.835Z,96256.22
2022-10-05T06:47:24.212Z,96260.59
2022-10-05T06:49:09.890Z,96262.22
2022-10-05T06:50:40.183Z,96260.78
2022-10-05T06:52:13.237Z,96263.19
2022-10-05T06:53:32.620Z,96266.38
2022-10-05T06:54:46.251Z,96254.69
2022-10-05T06:56:03.021Z,96259.47
2022-10-05T06:57:14.109Z,96254.41
2022-10-05T06:58:30.046Z,96254.47
2022-10-05T06:59:44.188Z,96251.00
2022-10-05T07:00:54.208Z,96264.31
2022-10-05T07:02:06.873Z,96261.97
2022-10-05T07:03:18.607Z,96267.88
2022-10-05T07:04:58.366Z,96260.44
2022-10-05T07:06:11.931Z,96259.69
2022-10-05T07:07:22.668Z,96260.88
2022-10-05T07:08:39.997Z,96263.63
2022-10-05T07:09:53.729Z,96269.09
2022-10-05T07:11:05.163Z,96267.53
2022-10-05T07:12:29.048Z,96267.53
2022-10-05T07:13:48.587Z,96271.44
2022-10-05T07:15:06.863Z,96270.69
2022-10-05T07:16:17.671Z,96271.44
2022-10-05T07:17:34.802Z,96269.47
2022-10-05T07:18:51.189Z,96272.22
2022-10-05T07:20:01.038Z,96273.34
2022-10-05T07:21:11.909Z,96272.56
2022-10-05T07:22:36.687Z,96275.63
2022-10-05T07:23:58.576Z,96274.38
2022-10-05T07:25:09.557Z,96279.69
2022-10-05T07:26:21.748Z,96280.34
2022-10-05T07:27:27.917Z,96275.50
2022-10-05T07:28:38.295Z,96274.56
2022-10-05T07:29:52.024Z,96280.69
2022-10-05T07:30:59.926Z,96288.34
2022-10-05T07:32:14.514Z,96293.66
2022-10-05T07:33:25.157Z,96284.16
2022-10-05T07:34:38.958Z,96284.00
2022-10-05T07:36:08.867Z,96296.00
2022-10-05T07:37:48.797Z,96293.09
2022-10-05T07:39:02.666Z,96300.75
2022-10-05T07:40:13.162Z,96290.88
2022-10-05T07:41:23.941Z,96291.91
2022-10-05T07:42:44.561Z,96296.91
2022-10-05T07:44:02.463Z,96300.38
2022-10-05T07:45:18.437Z,96301.88
2022-10-05T07:46:27.671Z,96294.75
2022-10-05T07:47:36.670Z,96300.97
2022-10-05T07:48:53.562Z,96297.38
2022-10-05T07:50:04.065Z,96301.59
2022-10-05T07:51:15.633Z,96297.28
2022-10-05T07:52:24.874Z,96301.91
2022-10-05T07:53:32.992Z,96303.44
2022-10-05T07:54:47.417Z,96305.44
2022-10-05T07:55:53.651Z,96307.00
2022-10-05T07:57:06.952Z,96307.75
2022-10-05T07:58:18.588Z,96303.81
2022-10-05T07:59:31.842Z,96310.06
2022-10-05T08:00:55.674Z,96309.66
2022-10-05T08:02:08.687Z,96312.00
2022-10-05T08:03:20.224Z,96310.00
2022-10-05T08:04:29.458Z,96313.13
2022-10-05T08:05:32.799Z,96318.59
2022-10-05T08:06:49.521Z,96316.22
2022-10-05T08:08:02.625Z,96315.44
2022-10-05T08:09:13.133Z,96320.13
2022-10-05T08:10:30.128Z,96320.13
2022-10-05T08:11:41.404Z,96322.88
2022-10-05T08:12:57.956Z,96324.09
2022-10-05T08:14:06.587Z,96318.59
2022-10-05T08:15:15.002Z,96320.13
2022-10-05T08:16:18.583Z,96325.63
2022-10-05T08:17:33.400Z,96320.94
2022-10-05T08:18:45.906Z,96313.13
2022-10-05T08:19:55.845Z,96318.19
2022-10-05T08:20:59.975Z,96321.72
2022-10-05T08:22:06.300Z,96320.50
2022-10-05T08:23:21.006Z,96320.50
2022-10-05T08:24:42.253Z,96320.84
2022-10-05T08:25:56.817Z,96320.84
2022-10-05T08:27:07.580Z,96322.41
2022-10-05T08:28:18.481Z,96323.19
2022-10-05T08:29:28.802Z,96325.50
2022-10-05T08:30:38.600Z,96319.25
2022-10-05T08:31:45.703Z,96325.50
2022-10-05T08:32:55.186Z,96327.81
2022-10-05T08:34:03.912Z,96328.59
2022-10-05T08:35:21.914Z,96329.41
2022-10-05T08:36:34.964Z,96332.47
2022-10-05T08:37:42.850Z,96327.34
2022-10-05T08:38:45.973Z,96331.19
2022-10-05T08:39:56.705Z,96332.78
2022-10-05T08:41:41.661Z,96329.94
2022-10-05T08:43:12.457Z,96334.59
2022-10-05T08:44:52.463Z,96331.88
2022-10-05T08:46:23.508Z,96326.72
2022-10-05T08:47:41.162Z,96335.31
2022-10-05T08:49:11.262Z,96324.66
2022-10-05T08:50:26.549Z,96325.81
2022-10-05T08:51:56.321Z,96321.88
2022-10-05T08:53:23.050Z,96320.66
2022-10-05T08:54:47.839Z,96320.25
2022-10-05T08:56:05.575Z,96325.72
2022-10-05T08:57:44.687Z,96321.00
2022-10-05T08:59:04.202Z,96329.59
2022-10-05T09:00:13.988Z,96324.88
2022-10-05T09:01:26.389Z,96320.19
2022-10-05T09:02:39.034Z,96322.50
2022-10-05T09:04:06.631Z,96323.28
2022-10-05T09:05:33.622Z,96326.81
2022-10-05T09:07:10.555Z,96325.59
2022-10-05T09:08:46.170Z,96320.47
2022-10-05T09:10:19.627Z,96320.41
2022-10-05T09:11:27.229Z,96322.28
2022-10-05T09:12:58.843Z,96323.75
2022-10-05T09:14:34.551Z,96323.69
2022-10-05T09:16:16.984Z,96321.31
2022-10-05T09:17:39.146Z,96330.66
2022-10-05T09:19:20.386Z,96321.22
2022-10-05T09:20:32.244Z,96326.28
2022-10-05T09:21:46.315Z,96330.56
2022-10-05T09:23:00.225Z,96328.19
2022-10-05T09:24:24.251Z,96323.03
2022-10-05T09:25:49.939Z,96331.63
2022-10-05T09:27:02.293Z,96333.19
2022-10-05T09:28:21.638Z,96337.03
2022-10-05T09:29:45.164Z,96328.75
2022-10-05T09:30:59.424Z,96333.41
2022-10-05T09:32:25.044Z,96325.50
2022-10-05T09:33:59.017Z,96330.19
2022-10-05T09:35:31.509Z,96332.06
2022-10-05T09:37:11.729Z,96329.22
2022-10-05T09:38:25.522Z,96327.94
2022-10-05T09:40:01.089Z,96333.78
2022-10-05T09:41:31.502Z,96329.75
2022-10-05T09:42:58.140Z,96325.38
2022-10-05T09:44:36.285Z,96325.72
2022-10-05T09:46:21.530Z,96325.25
2022-10-05T09:47:56.379Z,96330.75
2022-10-05T09:49:22.195Z,96327.13
2022-10-05T09:51:02.951Z,96327.81
2022-10-05T09:52:46.727Z,96323.78
2022-10-05T09:54:15.325Z,96320.59
2022-10-05T09:55:41.691Z,96326.09
2022-10-05T09:57:18.296Z,96320.94
2022-10-05T09:58:50.957Z,96315.78
2022-10-05T10:00:27.401Z,96319.25
2022-10-05T10:01:49.506Z,96325.09
2022-10-05T10:03:22.657Z,96326.19
2022-10-05T10:04:44.884Z,96321.81
2022-10-05T10:06:12.795Z,96322.59
2022-10-05T10:07:39.044Z,96323.34
2022-10-05T10:08:54.635Z,96320.94
2022-10-05T10:10:29.186Z,96323.28
2022-10-05T10:11:43.253Z,96312.63
2022-10-05T10:13:05.285Z,96311.84
2022-10-05T10:14:49.453Z,96318.47
2022-10-05T10:16:14.390Z,96309.34
2022-10-05T10:17:47.292Z,96308.16
2022-10-05T10:19:07.142Z,96315.97
2022-10-05T10:20:34.499Z,96311.22
2022-10-05T10:22:02.344Z,96315.88
2022-10-05T10:23:29.435Z,96318.19
2022-10-05T10:24:52.262Z,96320.16
2022-10-05T10:26:23.950Z,96316.56
2022-10-05T10:27:48.047Z,96312.53
2022-10-05T10:29:31.440Z,96314.84
2022-10-05T10:30:58.241Z,96326.53
2022-10-05T10:32:15.818Z,96320.59
2022-10-05T10:33:51.639Z,96313.00
2022-10-05T10:35:11.951Z,96308.97
2022-10-05T10:36:20.744Z,96312.84
2022-10-05T10:38:08.272Z,96317.13
2022-10-05T10:39:18.723Z,96312.84
2022-10-05T10:40:37.475Z,96310.44
2022-10-05T10:42:13.009Z,96317.06
2022-10-05T10:43:47.293Z,96313.84
2022-10-05T10:45:15.588Z,96311.09
2022-10-05T10:46:30.865Z,96305.16
2022-10-05T10:47:56.866Z,96311.09
2022-10-05T10:49:15.661Z,96314.19
2022-10-05T10:50:40.252Z,96305.94
2022-10-05T10:52:09.031Z,96299.25
2022-10-05T10:53:36.668Z,96301.19
2022-10-05T10:55:06.986Z,96303.53
2022-10-05T10:56:24.433Z,96295.59
2022-10-05T10:57:41.954Z,96303.88
2022-10-05T10:59:18.662Z,96305.09
2022-10-05T11:00:41.278Z,96296.38
2022-10-05T11:01:53.403Z,96303.03
2022-10-05T11:03:34.994Z,96296.31
2022-10-05T11:05:03.631Z,96298.19
2022-10-05T11:06:28.347Z,96304.03
2022-10-05T11:07:59.182Z,96296.91
2022-10-05T11:09:24.814Z,96297.22
2022-10-05T11:10:51.210Z,96297.47
2022-10-05T11:12:34.663Z,96291.88
2022-10-05T11:13:53.196Z,96293.75
2022-10-05T11:15:09.019Z,96289.03
2022-10-05T11:16:41.183Z,96297.59
2022-10-05T11:17:59.564Z,96286.94
2022-10-05T11:19:40.037Z,96286.06
2022-10-05T11:21:25.674Z,96286.72
2022-10-05T11:22:52.560Z,96277.59
2022-10-05T11:24:32.648Z,96275.19
2022-10-05T11:26:04.999Z,96268.47
2022-10-05T11:27:26.594Z,96262.59
2022-10-05T11:29:18.487Z,96257.09
2022-10-05T11:30:28.483Z,96261.41
2022-10-05T11:31:48.854Z,96254.69
2022-10-05T11:33:27.756Z,96261.75
2022-10-05T11:35:00.654Z,96251.50
2022-10-05T11:36:33.582Z,96257.00
2022-10-05T11:38:02.656Z,96260.88
2022-10-05T11:39:30.336Z,96252.59
2022-10-05T11:41:08.772Z,96245.78
2022-10-05T11:42:41.024Z,96251.16
2022-10-05T11:44:25.675Z,96249.41
2022-10-05T11:45:40.820Z,96245.78
2022-10-05T11:46:52.798Z,96246.56
2022-10-05T11:48:23.991Z,96244.25
2022-10-05T11:49:38.297Z,96241.50
2022-10-05T11:50:50.355Z,96240.59
2022-10-05T11:52:02.444Z,96239.84
2022-10-05T11:53:14.055Z,96238.19
2022-10-05T11:54:58.490Z,96234.22
2022-10-05T11:56:09.651Z,96233.34
2022-10-05T11:57:18.249Z,96227.06
2022-10-05T11:58:27.334Z,96226.59
2022-10-05T11:59:35.055Z,96228.50
2022-10-05T12:00:43.667Z,96227.94
2022-10-05T12:01:55.917Z,96231.22
2022-10-05T12:03:36.810Z,96226.28
2022-10-05T12:04:53.990Z,96231.22
2022-10-05T12:06:17.407Z,96232.75
2022-10-05T12:07:30.305Z,96231.44
2022-10-05T12:08:42.067Z,96227.47
2022-10-05T12:10:18.557Z,96229.78
2022-10-05T12:11:43.771Z,96225.91
2022-10-05T12:12:59.066Z,96223.50
2022-10-05T12:14:08.497Z,96222.63
2022-10-05T12:15:23.441Z,96223.72
2022-10-05T12:16:35.042Z,96219.41
2022-10-05T12:17:42.442Z,96213.13
2022-10-05T12:18:59.962Z,96216.31
2022-10-05T12:20:06.913Z,96210.81
2022-10-05T12:21:16.704Z,96215.13
2022-10-05T12:22:25.982Z,96209.94
2022-10-05T12:23:35.192Z,96209.94
2022-10-05T12:25:13.355Z,96205.97
2022-10-05T12:26:23.199Z,96215.00
2022-10-05T12:27:28.578Z,96209.50
2022-10-05T12:28:37.455Z,96209.94
2022-10-05T12:29:49.086Z,96213.88
2022-10-05T12:31:07.513Z,96208.38
2022-10-05T12:32:17.754Z,96205.09
2022-10-05T12:33:24.092Z,96201.88
2022-10-05T12:34:37.857Z,96201.78
2022-10-05T12:35:49.284Z,96203.63
2022-10-05T12:37:04.783Z,96201.97
2022-10-05T12:38:18.411Z,96202.75
2022-10-05T12:39:28.227Z,96197.56
2022-10-05T12:40:40.097Z,96194.34
2022-10-05T12:41:50.268Z,96200.63
2022-10-05T12:43:00.728Z,96194.34
2022-10-05T12:44:14.298Z,96199.09
2022-10-05T12:45:27.594Z,96199.97
2022-10-05T12:46:40.759Z,96202.75
2022-10-05T12:47:54.802Z,96200.78
2022-10-05T12:49:15.683Z,96199.22
2022-10-05T12:50:27.100Z,96199.97
2022-10-05T12:51:40.582Z,96207.50
2022-10-05T12:52:57.069Z,96199.97
2022-10-05T12:54:11.397Z,96193.25
2022-10-05T12:55:20.276Z,96195.88
2022-10-05T12:56:38.255Z,96196.69
2022-10-05T12:57:49.334Z,96194.25
2022-10-05T12:59:01.277Z,96203.28
2022-10-05T13:00:06.233Z,96199.78
2022-10-05T13:01:20.031Z,96194.25
2022-10-05T13:02:34.611Z,96191.50
2022-10-05T13:03:41.104Z,96194.25
2022-10-05T13:04:50.969Z,96194.25
2022-10-05T13:06:06.181Z,96191.78
2022-10-05T13:07:36.576Z,96193.69
2022-10-05T13:08:50.398Z,96190.78
2022-10-05T13:10:08.880Z,96191.09
2022-10-05T13:11:18.240Z,96189.13
2022-10-05T13:12:27.456Z,96190.66
2022-10-05T13:13:48.496Z,96185.16
2022-10-05T13:15:01.565Z,96186.69
2022-10-05T13:16:15.357Z,96188.25
2022-10-05T13:17:27.553Z,96191.31
2022-10-05T13:18:42.132Z,96179.50
2022-10-05T13:19:48.047Z,96181.81
2022-10-05T13:20:56.235Z,96184.56
2022-10-05T13:22:21.196Z,96188.09
2022-10-05T13:23:34.790Z,96179.81
2022-10-05T13:24:45.823Z,96188.91
2022-10-05T13:25:57.055Z,96181.38
2022-10-05T13:27:04.835Z,96189.19
2022-10-05T13:28:16.843Z,96187.22
2022-10-05T13:29:27.759Z,96183.22
2022-10-05T13:30:29.972Z,96188.75
2022-10-05T13:31:40.084Z,96188.75
2022-10-05T13:32:47.890Z,96178.47
2022-10-05T13:34:08.556Z,96182.78
2022-10-05T13:35:28.603Z,96186.75
2022-10-05T13:36:43.291Z,96188.00
2022-10-05T13:37:55.571Z,96183.66
2022-10-05T13:39:03.753Z,96176.63
2022-10-05T13:40:18.710Z,96180.91
2022-10-05T13:41:32.863Z,96182.47
2022-10-05T13:42:44.739Z,96189.09
2022-10-05T13:43:59.034Z,96177.72
2022-10-05T13:45:11.264Z,96179.72
2022-10-05T13:46:24.430Z,96180.03
2022-10-05T13:47:32.822Z,96176.03
2022-10-05T13:48:57.576Z,96185.41
2022-10-05T13:50:04.508Z,96183.44
2022-10-05T13:51:11.726Z,96177.47
2022-10-05T13:52:30.302Z,96184.53
2022-10-05T13:53:39.847Z,96175.03
2022-10-05T13:54:49.039Z,96182.09
2022-10-05T13:55:59.464Z,96180.88
2022-10-05T13:57:19.125Z,96187.16
2022-10-05T13:58:32.354Z,96178.00
2022-10-05T13:59:44.166Z,96176.44
2022-10-05T14:00:51.724Z,96185.03
2022-10-05T14:01:58.585Z,96184.28
2022-10-05T14:03:02.015Z,96181.84
2022-10-05T14:04:09.989Z,96186.56
2022-10-05T14:05:18.571Z,96181.06
2022-10-05T14:06:29.855Z,96183.38
2022-10-05T14:07:35.157Z,96185.69
2022-10-05T14:08:48.082Z,96185.69
2022-10-05T14:09:51.137Z,96188.78
2022-10-05T14:10:54.321Z,96186.78
2022-10-05T14:12:14.551Z,96184.78
2022-10-05T14:13:28.701Z,96182.47
2022-10-05T14:14:33.882Z,96186.03
2022-10-05T14:15:41.913Z,96181.69
2022-10-05T14:16:51.096Z,96178.94
2022-10-05T14:17:54.159Z,96181.69
2022-10-05T14:19:15.453Z,96181.69
2022-10-05T14:20:21.840Z,96181.69
2022-10-05T14:21:26.702Z,96175.75
2022-10-05T14:22:29.466Z,96169.47
2022-10-05T14:23:32.566Z,96176.06
2022-10-05T14:24:44.791Z,96176.84
2022-10-05T14:25:53.775Z,96171.31
2022-10-05T14:26:58.574Z,96175.31
2022-10-05T14:28:24.084Z,96175.31
2022-10-05T14:29:36.166Z,96169.00
2022-10-05T14:30:40.077Z,96170.97
2022-10-05T14:31:50.054Z,96173.75
2022-10-05T14:32:56.733Z,96170.22
2022-10-05T14:34:27.205Z,96173.75
2022-10-05T14:35:31.785Z,96175.75
2022-10-05T14:36:36.744Z,96169.47
2022-10-05T14:37:47.723Z,96172.97
2022-10-05T14:38:53.248Z,96178.94
2022-10-05T14:40:20.154Z,96177.41
2022-10-05T14:41:25.368Z,96170.66
2022-10-05T14:42:30.292Z,96175.41